sensor_id;sensor_type;location;lat;lon;timestamp;temperature;humidity
13336;DHT22;6737;51.480;11.962;2023-11-21T00:00:21;7.20;99.90
13336;DHT22;6737;51.480;11.962;2023-11-21T00:02:47;7.20;99.90
13336;DHT22;6737;51.480;11.962;2023-11-21T00:05:14;7.20;99.90
13336;DHT22;6737;51.480;11.962;2023-11-21T00:07:41;7.10;99.90
13336;DHT22;6737;51.480;11.962;2023-11-21T00:10:07;7.10;99.90
13336;DHT22;6737;51.480;11.962;2023-11-21T00:12:34;7.10;99.90
13336;DHT22;6737;51.480;11.962;2023-11-21T00:15:00;7.10;99.90
13336;DHT22;6737;51.480;11.962;2023-11-21T00:17:27;7.00;99.90
13336;DHT22;6737;51.480;11.962;2023-11-21T00:19:53;7.00;99.90
13336;DHT22;6737;51.480;11.962;2023-11-21T00:22:19;7.00;99.90
13336;DHT22;6737;51.480;11.962;2023-11-21T00:24:48;6.90;99.90
13336;DHT22;6737;51.480;11.962;2023-11-21T00:27:14;6.90;99.90
13336;DHT22;6737;51.480;11.962;2023-11-21T00:29:40;6.90;99.90
13336;DHT22;6737;51.480;11.962;2023-11-21T00:32:06;6.90;99.90
13336;DHT22;6737;51.480;11.962;2023-11-21T00:34:32;6.80;99.90
13336;DHT22;6737;51.480;11.962;2023-11-21T00:36:58;6.80;99.90
13336;DHT22;6737;51.480;11.962;2023-11-21T00:39:24;6.80;99.90
13336;DHT22;6737;51.480;11.962;2023-11-21T00:41:52;6.80;99.90
13336;DHT22;6737;51.480;11.962;2023-11-21T00:44:18;6.80;99.90
13336;DHT22;6737;51.480;11.962;2023-11-21T00:46:44;6.70;99.90
13336;DHT22;6737;51.480;11.962;2023-11-21T00:49:10;6.70;99.90
13336;DHT22;6737;51.480;11.962;2023-11-21T00:51:35;6.70;99.90
13336;DHT22;6737;51.480;11.962;2023-11-21T00:54:02;6.70;99.90
13336;DHT22;6737;51.480;11.962;2023-11-21T00:56:28;6.80;99.90
13336;DHT22;6737;51.480;11.962;2023-11-21T00:58:54;6.80;99.90
13336;DHT22;6737;51.480;11.962;2023-11-21T01:01:20;6.80;99.90
13336;DHT22;6737;51.480;11.962;2023-11-21T01:03:49;6.70;99.90
13336;DHT22;6737;51.480;11.962;2023-11-21T01:06:17;6.80;99.90
13336;DHT22;6737;51.480;11.962;2023-11-21T01:08:44;6.70;99.90
13336;DHT22;6737;51.480;11.962;2023-11-21T01:11:10;6.70;99.90
13336;DHT22;6737;51.480;11.962;2023-11-21T01:13:41;6.80;99.90
13336;DHT22;6737;51.480;11.962;2023-11-21T01:16:07;6.80;99.90
13336;DHT22;6737;51.480;11.962;2023-11-21T01:18:33;6.80;99.90
13336;DHT22;6737;51.480;11.962;2023-11-21T01:21:00;6.80;99.90
13336;DHT22;6737;51.480;11.962;2023-11-21T01:23:26;6.80;99.90
13336;DHT22;6737;51.480;11.962;2023-11-21T01:25:53;6.80;99.90
13336;DHT22;6737;51.480;11.962;2023-11-21T01:28:19;6.70;99.90
13336;DHT22;6737;51.480;11.962;2023-11-21T01:30:45;6.70;99.90
13336;DHT22;6737;51.480;11.962;2023-11-21T01:33:11;6.70;99.90
13336;DHT22;6737;51.480;11.962;2023-11-21T01:35:37;6.70;99.90
13336;DHT22;6737;51.480;11.962;2023-11-21T01:38:03;6.80;99.90
13336;DHT22;6737;51.480;11.962;2023-11-21T01:40:30;6.70;99.90
13336;DHT22;6737;51.480;11.962;2023-11-21T01:42:56;6.80;99.90
13336;DHT22;6737;51.480;11.962;2023-11-21T01:45:23;6.70;99.90
13336;DHT22;6737;51.480;11.962;2023-11-21T01:47:50;6.70;99.90
13336;DHT22;6737;51.480;11.962;2023-11-21T01:50:17;6.60;99.90
13336;DHT22;6737;51.480;11.962;2023-11-21T01:52:46;6.60;99.90
13336;DHT22;6737;51.480;11.962;2023-11-21T01:55:16;6.60;99.90
13336;DHT22;6737;51.480;11.962;2023-11-21T01:57:46;6.60;99.90
13336;DHT22;6737;51.480;11.962;2023-11-21T02:00:12;6.60;99.90
13336;DHT22;6737;51.480;11.962;2023-11-21T02:02:45;6.60;99.90
13336;DHT22;6737;51.480;11.962;2023-11-21T02:05:20;6.60;99.90
13336;DHT22;6737;51.480;11.962;2023-11-21T02:07:47;6.60;99.90
13336;DHT22;6737;51.480;11.962;2023-11-21T02:10:18;6.60;99.90
13336;DHT22;6737;51.480;11.962;2023-11-21T02:12:49;6.60;99.90
13336;DHT22;6737;51.480;11.962;2023-11-21T02:15:18;6.60;99.90
13336;DHT22;6737;51.480;11.962;2023-11-21T02:17:49;6.70;99.90
13336;DHT22;6737;51.480;11.962;2023-11-21T02:20:20;6.70;99.90
13336;DHT22;6737;51.480;11.962;2023-11-21T02:22:51;6.70;99.90
13336;DHT22;6737;51.480;11.962;2023-11-21T02:25:25;6.70;99.90
13336;DHT22;6737;51.480;11.962;2023-11-21T02:27:51;6.80;99.90
13336;DHT22;6737;51.480;11.962;2023-11-21T02:30:17;6.80;99.90
13336;DHT22;6737;51.480;11.962;2023-11-21T02:32:42;6.80;99.90
13336;DHT22;6737;51.480;11.962;2023-11-21T02:35:09;6.90;99.90
13336;DHT22;6737;51.480;11.962;2023-11-21T02:37:35;6.90;99.90
13336;DHT22;6737;51.480;11.962;2023-11-21T02:40:01;6.90;99.90
13336;DHT22;6737;51.480;11.962;2023-11-21T02:42:32;6.90;99.90
13336;DHT22;6737;51.480;11.962;2023-11-21T02:44:57;7.00;99.90
13336;DHT22;6737;51.480;11.962;2023-11-21T02:47:23;7.00;99.90
13336;DHT22;6737;51.480;11.962;2023-11-21T02:49:50;7.00;99.90
13336;DHT22;6737;51.480;11.962;2023-11-21T02:52:18;7.10;99.90
13336;DHT22;6737;51.480;11.962;2023-11-21T02:54:44;7.10;99.90
13336;DHT22;6737;51.480;11.962;2023-11-21T02:57:10;7.10;99.90
13336;DHT22;6737;51.480;11.962;2023-11-21T02:59:36;7.10;99.90
13336;DHT22;6737;51.480;11.962;2023-11-21T03:02:01;7.10;99.90
13336;DHT22;6737;51.480;11.962;2023-11-21T03:04:27;7.10;99.90
13336;DHT22;6737;51.480;11.962;2023-11-21T03:06:53;7.10;99.90
13336;DHT22;6737;51.480;11.962;2023-11-21T03:09:19;7.20;99.90
13336;DHT22;6737;51.480;11.962;2023-11-21T03:11:45;7.20;99.90
13336;DHT22;6737;51.480;11.962;2023-11-21T03:14:11;7.20;99.90
13336;DHT22;6737;51.480;11.962;2023-11-21T03:16:37;7.20;99.90
13336;DHT22;6737;51.480;11.962;2023-11-21T03:19:04;7.20;99.90
13336;DHT22;6737;51.480;11.962;2023-11-21T03:21:30;7.20;99.90
13336;DHT22;6737;51.480;11.962;2023-11-21T03:23:56;7.20;99.90
13336;DHT22;6737;51.480;11.962;2023-11-21T03:26:22;7.20;99.90
13336;DHT22;6737;51.480;11.962;2023-11-21T03:28:48;7.20;99.90
13336;DHT22;6737;51.480;11.962;2023-11-21T03:31:13;7.20;99.90
13336;DHT22;6737;51.480;11.962;2023-11-21T03:33:39;7.20;99.90
13336;DHT22;6737;51.480;11.962;2023-11-21T03:36:05;7.30;99.90
13336;DHT22;6737;51.480;11.962;2023-11-21T03:38:33;7.30;99.90
13336;DHT22;6737;51.480;11.962;2023-11-21T03:40:59;7.30;99.90
13336;DHT22;6737;51.480;11.962;2023-11-21T03:43:24;7.20;99.90
13336;DHT22;6737;51.480;11.962;2023-11-21T03:45:50;7.20;99.90
13336;DHT22;6737;51.480;11.962;2023-11-21T03:48:16;7.20;99.90
13336;DHT22;6737;51.480;11.962;2023-11-21T03:50:42;7.20;99.90
13336;DHT22;6737;51.480;11.962;2023-11-21T03:53:07;7.30;99.90
13336;DHT22;6737;51.480;11.962;2023-11-21T03:55:33;7.30;99.90
13336;DHT22;6737;51.480;11.962;2023-11-21T03:57:59;7.30;99.90
13336;DHT22;6737;51.480;11.962;2023-11-21T04:00:25;7.30;99.90
13336;DHT22;6737;51.480;11.962;2023-11-21T04:02:53;7.30;99.90
13336;DHT22;6737;51.480;11.962;2023-11-21T04:05:21;7.30;99.90
13336;DHT22;6737;51.480;11.962;2023-11-21T04:07:50;7.30;99.90
13336;DHT22;6737;51.480;11.962;2023-11-21T04:10:16;7.40;99.90
13336;DHT22;6737;51.480;11.962;2023-11-21T04:12:42;7.40;99.90
13336;DHT22;6737;51.480;11.962;2023-11-21T04:15:09;7.40;99.90
13336;DHT22;6737;51.480;11.962;2023-11-21T04:17:35;7.40;99.90
13336;DHT22;6737;51.480;11.962;2023-11-21T04:20:04;7.40;99.90
13336;DHT22;6737;51.480;11.962;2023-11-21T04:22:35;7.40;99.90
13336;DHT22;6737;51.480;11.962;2023-11-21T04:25:01;7.40;99.90
13336;DHT22;6737;51.480;11.962;2023-11-21T04:27:27;7.40;99.90
13336;DHT22;6737;51.480;11.962;2023-11-21T04:29:53;7.40;99.90
13336;DHT22;6737;51.480;11.962;2023-11-21T04:32:19;7.30;99.90
13336;DHT22;6737;51.480;11.962;2023-11-21T04:34:45;7.40;99.90
13336;DHT22;6737;51.480;11.962;2023-11-21T04:37:10;7.40;99.90
13336;DHT22;6737;51.480;11.962;2023-11-21T04:39:36;7.40;99.90
13336;DHT22;6737;51.480;11.962;2023-11-21T04:42:02;7.40;99.90
13336;DHT22;6737;51.480;11.962;2023-11-21T04:44:28;7.40;99.90
13336;DHT22;6737;51.480;11.962;2023-11-21T04:46:54;7.40;99.90
13336;DHT22;6737;51.480;11.962;2023-11-21T04:49:21;7.40;99.90
13336;DHT22;6737;51.480;11.962;2023-11-21T04:51:47;7.40;99.90
13336;DHT22;6737;51.480;11.962;2023-11-21T04:54:12;7.40;99.90
13336;DHT22;6737;51.480;11.962;2023-11-21T04:56:38;7.40;99.90
13336;DHT22;6737;51.480;11.962;2023-11-21T04:59:04;7.40;99.90
13336;DHT22;6737;51.480;11.962;2023-11-21T05:01:30;7.40;99.90
13336;DHT22;6737;51.480;11.962;2023-11-21T05:03:55;7.50;99.90
13336;DHT22;6737;51.480;11.962;2023-11-21T05:06:22;7.50;99.90
13336;DHT22;6737;51.480;11.962;2023-11-21T05:08:49;7.40;99.90
13336;DHT22;6737;51.480;11.962;2023-11-21T05:11:25;7.40;99.90
13336;DHT22;6737;51.480;11.962;2023-11-21T05:13:51;7.40;99.90
13336;DHT22;6737;51.480;11.962;2023-11-21T05:16:17;7.50;99.90
13336;DHT22;6737;51.480;11.962;2023-11-21T05:18:42;7.50;99.90
13336;DHT22;6737;51.480;11.962;2023-11-21T05:21:08;7.50;99.90
13336;DHT22;6737;51.480;11.962;2023-11-21T05:23:35;7.50;99.90
13336;DHT22;6737;51.480;11.962;2023-11-21T05:26:01;7.50;99.90
13336;DHT22;6737;51.480;11.962;2023-11-21T05:28:26;7.50;99.90
13336;DHT22;6737;51.480;11.962;2023-11-21T05:30:52;7.50;99.90
13336;DHT22;6737;51.480;11.962;2023-11-21T05:33:19;7.50;99.90
13336;DHT22;6737;51.480;11.962;2023-11-21T05:35:44;7.50;99.90
13336;DHT22;6737;51.480;11.962;2023-11-21T05:38:10;7.50;99.90
13336;DHT22;6737;51.480;11.962;2023-11-21T05:40:37;7.50;99.90
13336;DHT22;6737;51.480;11.962;2023-11-21T05:43:03;7.50;99.90
13336;DHT22;6737;51.480;11.962;2023-11-21T05:45:30;7.50;99.90
13336;DHT22;6737;51.480;11.962;2023-11-21T05:47:58;7.50;99.90
13336;DHT22;6737;51.480;11.962;2023-11-21T05:50:24;7.50;99.90
13336;DHT22;6737;51.480;11.962;2023-11-21T05:52:50;7.50;99.90
13336;DHT22;6737;51.480;11.962;2023-11-21T05:55:16;7.50;99.90
13336;DHT22;6737;51.480;11.962;2023-11-21T05:57:43;7.50;99.90
13336;DHT22;6737;51.480;11.962;2023-11-21T06:00:12;7.40;99.90
13336;DHT22;6737;51.480;11.962;2023-11-21T06:02:47;7.50;99.90
13336;DHT22;6737;51.480;11.962;2023-11-21T06:05:13;7.40;99.90
13336;DHT22;6737;51.480;11.962;2023-11-21T06:07:39;7.40;99.90
13336;DHT22;6737;51.480;11.962;2023-11-21T06:10:07;7.40;99.90
13336;DHT22;6737;51.480;11.962;2023-11-21T06:12:36;7.50;99.90
13336;DHT22;6737;51.480;11.962;2023-11-21T06:15:05;7.50;99.90
13336;DHT22;6737;51.480;11.962;2023-11-21T06:17:34;7.50;99.90
13336;DHT22;6737;51.480;11.962;2023-11-21T06:20:06;7.50;99.90
13336;DHT22;6737;51.480;11.962;2023-11-21T06:22:40;7.50;99.90
13336;DHT22;6737;51.480;11.962;2023-11-21T06:25:08;7.60;99.90
13336;DHT22;6737;51.480;11.962;2023-11-21T06:27:39;7.60;99.90
13336;DHT22;6737;51.480;11.962;2023-11-21T06:30:06;7.60;99.90
13336;DHT22;6737;51.480;11.962;2023-11-21T06:32:34;7.60;99.90
13336;DHT22;6737;51.480;11.962;2023-11-21T06:35:02;7.60;99.90
13336;DHT22;6737;51.480;11.962;2023-11-21T06:37:29;7.60;99.90
13336;DHT22;6737;51.480;11.962;2023-11-21T06:39:56;7.60;99.90
13336;DHT22;6737;51.480;11.962;2023-11-21T06:42:24;7.60;99.90
13336;DHT22;6737;51.480;11.962;2023-11-21T06:44:50;7.60;99.90
13336;DHT22;6737;51.480;11.962;2023-11-21T06:47:24;7.60;99.90
13336;DHT22;6737;51.480;11.962;2023-11-21T06:49:55;7.70;99.90
13336;DHT22;6737;51.480;11.962;2023-11-21T06:52:21;7.70;99.90
13336;DHT22;6737;51.480;11.962;2023-11-21T06:54:48;7.70;99.90
13336;DHT22;6737;51.480;11.962;2023-11-21T06:57:15;7.70;99.90
13336;DHT22;6737;51.480;11.962;2023-11-21T06:59:41;7.70;99.90
13336;DHT22;6737;51.480;11.962;2023-11-21T07:02:07;7.70;99.90
13336;DHT22;6737;51.480;11.962;2023-11-21T07:04:34;7.70;99.90
13336;DHT22;6737;51.480;11.962;2023-11-21T07:06:59;7.70;99.90
13336;DHT22;6737;51.480;11.962;2023-11-21T07:09:25;7.80;99.90
13336;DHT22;6737;51.480;11.962;2023-11-21T07:11:52;7.80;99.90
13336;DHT22;6737;51.480;11.962;2023-11-21T07:14:18;7.80;99.90
13336;DHT22;6737;51.480;11.962;2023-11-21T07:16:46;7.80;99.90
13336;DHT22;6737;51.480;11.962;2023-11-21T07:19:12;7.80;99.90
13336;DHT22;6737;51.480;11.962;2023-11-21T07:21:39;7.90;99.90
13336;DHT22;6737;51.480;11.962;2023-11-21T07:24:06;7.90;99.90
13336;DHT22;6737;51.480;11.962;2023-11-21T07:26:33;7.90;99.90
13336;DHT22;6737;51.480;11.962;2023-11-21T07:29:00;7.90;99.90
13336;DHT22;6737;51.480;11.962;2023-11-21T07:31:27;7.90;99.90
13336;DHT22;6737;51.480;11.962;2023-11-21T07:33:53;7.90;99.90
13336;DHT22;6737;51.480;11.962;2023-11-21T07:36:21;8.00;99.90
13336;DHT22;6737;51.480;11.962;2023-11-21T07:38:47;8.00;99.90
13336;DHT22;6737;51.480;11.962;2023-11-21T07:41:13;8.00;99.90
13336;DHT22;6737;51.480;11.962;2023-11-21T07:43:42;8.10;99.90
13336;DHT22;6737;51.480;11.962;2023-11-21T07:46:08;8.00;99.90
13336;DHT22;6737;51.480;11.962;2023-11-21T07:48:34;8.00;99.90
13336;DHT22;6737;51.480;11.962;2023-11-21T07:51:02;8.00;99.90
13336;DHT22;6737;51.480;11.962;2023-11-21T07:53:30;8.00;99.90
13336;DHT22;6737;51.480;11.962;2023-11-21T07:55:58;7.90;99.90
13336;DHT22;6737;51.480;11.962;2023-11-21T07:58:24;7.90;99.90
13336;DHT22;6737;51.480;11.962;2023-11-21T08:00:50;7.90;99.90
13336;DHT22;6737;51.480;11.962;2023-11-21T08:03:16;7.90;99.90
13336;DHT22;6737;51.480;11.962;2023-11-21T08:05:42;7.90;99.90
13336;DHT22;6737;51.480;11.962;2023-11-21T08:08:08;7.90;99.90
13336;DHT22;6737;51.480;11.962;2023-11-21T08:10:34;7.90;99.90
13336;DHT22;6737;51.480;11.962;2023-11-21T08:13:05;7.90;99.90
13336;DHT22;6737;51.480;11.962;2023-11-21T08:15:32;7.90;99.90
13336;DHT22;6737;51.480;11.962;2023-11-21T08:17:58;7.90;99.90
13336;DHT22;6737;51.480;11.962;2023-11-21T08:20:24;7.90;99.90
13336;DHT22;6737;51.480;11.962;2023-11-21T08:22:50;7.90;99.90
13336;DHT22;6737;51.480;11.962;2023-11-21T08:25:18;7.90;99.90
13336;DHT22;6737;51.480;11.962;2023-11-21T08:27:46;7.90;99.90
13336;DHT22;6737;51.480;11.962;2023-11-21T08:30:12;7.90;99.90
13336;DHT22;6737;51.480;11.962;2023-11-21T08:32:43;7.80;99.90
13336;DHT22;6737;51.480;11.962;2023-11-21T08:35:08;7.80;99.90
13336;DHT22;6737;51.480;11.962;2023-11-21T08:37:35;7.80;99.90
13336;DHT22;6737;51.480;11.962;2023-11-21T08:40:06;7.80;99.90
13336;DHT22;6737;51.480;11.962;2023-11-21T08:42:35;7.70;99.90
13336;DHT22;6737;51.480;11.962;2023-11-21T08:45:01;7.80;99.90
13336;DHT22;6737;51.480;11.962;2023-11-21T08:47:27;7.80;99.90
13336;DHT22;6737;51.480;11.962;2023-11-21T08:49:53;7.70;99.90
13336;DHT22;6737;51.480;11.962;2023-11-21T08:52:20;7.70;99.90
13336;DHT22;6737;51.480;11.962;2023-11-21T08:54:49;7.70;99.90
13336;DHT22;6737;51.480;11.962;2023-11-21T08:57:24;7.70;99.90
13336;DHT22;6737;51.480;11.962;2023-11-21T08:59:50;7.80;99.90
13336;DHT22;6737;51.480;11.962;2023-11-21T09:02:21;7.80;99.90
13336;DHT22;6737;51.480;11.962;2023-11-21T09:04:50;7.70;99.90
13336;DHT22;6737;51.480;11.962;2023-11-21T09:07:19;7.70;99.90
13336;DHT22;6737;51.480;11.962;2023-11-21T09:09:49;7.70;99.90
13336;DHT22;6737;51.480;11.962;2023-11-21T09:12:15;7.60;99.90
13336;DHT22;6737;51.480;11.962;2023-11-21T09:14:43;7.60;99.90
13336;DHT22;6737;51.480;11.962;2023-11-21T09:17:09;7.60;99.90
13336;DHT22;6737;51.480;11.962;2023-11-21T09:19:38;7.70;99.90
13336;DHT22;6737;51.480;11.962;2023-11-21T09:22:04;7.60;99.90
13336;DHT22;6737;51.480;11.962;2023-11-21T09:24:31;7.60;99.90
13336;DHT22;6737;51.480;11.962;2023-11-21T09:26:58;7.60;99.90
13336;DHT22;6737;51.480;11.962;2023-11-21T09:29:28;7.60;99.90
13336;DHT22;6737;51.480;11.962;2023-11-21T09:31:55;7.50;99.90
13336;DHT22;6737;51.480;11.962;2023-11-21T09:34:23;7.40;99.90
13336;DHT22;6737;51.480;11.962;2023-11-21T09:36:48;7.30;99.90
13336;DHT22;6737;51.480;11.962;2023-11-21T09:39:15;7.30;99.90
13336;DHT22;6737;51.480;11.962;2023-11-21T09:41:52;7.30;99.90
13336;DHT22;6737;51.480;11.962;2023-11-21T09:47:14;7.10;99.90
13336;DHT22;6737;51.480;11.962;2023-11-21T09:49:46;7.10;99.90
13336;DHT22;6737;51.480;11.962;2023-11-21T09:52:22;7.10;99.90
13336;DHT22;6737;51.480;11.962;2023-11-21T09:54:51;7.10;99.90
13336;DHT22;6737;51.480;11.962;2023-11-21T09:57:23;7.00;99.90
13336;DHT22;6737;51.480;11.962;2023-11-21T09:59:51;7.00;99.90
13336;DHT22;6737;51.480;11.962;2023-11-21T10:02:28;7.00;99.90
13336;DHT22;6737;51.480;11.962;2023-11-21T10:04:56;7.00;99.90
13336;DHT22;6737;51.480;11.962;2023-11-21T10:07:23;6.90;99.90
13336;DHT22;6737;51.480;11.962;2023-11-21T10:09:51;6.90;99.90
13336;DHT22;6737;51.480;11.962;2023-11-21T10:12:18;7.00;99.90
13336;DHT22;6737;51.480;11.962;2023-11-21T10:14:48;7.10;99.90
13336;DHT22;6737;51.480;11.962;2023-11-21T10:17:15;7.00;99.90
13336;DHT22;6737;51.480;11.962;2023-11-21T10:19:46;7.10;99.90
13336;DHT22;6737;51.480;11.962;2023-11-21T10:22:15;7.10;99.90
13336;DHT22;6737;51.480;11.962;2023-11-21T10:24:43;7.10;99.90
13336;DHT22;6737;51.480;11.962;2023-11-21T10:27:09;7.00;99.90
13336;DHT22;6737;51.480;11.962;2023-11-21T10:29:35;7.00;99.90
13336;DHT22;6737;51.480;11.962;2023-11-21T10:32:04;7.00;99.90
13336;DHT22;6737;51.480;11.962;2023-11-21T10:34:31;7.10;99.90
13336;DHT22;6737;51.480;11.962;2023-11-21T10:36:57;7.10;99.90
13336;DHT22;6737;51.480;11.962;2023-11-21T10:39:24;7.10;99.90
13336;DHT22;6737;51.480;11.962;2023-11-21T10:41:56;7.10;99.90
13336;DHT22;6737;51.480;11.962;2023-11-21T10:44:22;7.20;99.90
13336;DHT22;6737;51.480;11.962;2023-11-21T10:46:51;7.20;99.90
13336;DHT22;6737;51.480;11.962;2023-11-21T10:49:18;7.20;99.90
13336;DHT22;6737;51.480;11.962;2023-11-21T10:51:45;7.30;99.90
13336;DHT22;6737;51.480;11.962;2023-11-21T10:54:11;7.40;99.90
13336;DHT22;6737;51.480;11.962;2023-11-21T10:56:39;7.40;99.90
13336;DHT22;6737;51.480;11.962;2023-11-21T10:59:10;7.40;99.90
13336;DHT22;6737;51.480;11.962;2023-11-21T11:01:45;7.30;99.90
13336;DHT22;6737;51.480;11.962;2023-11-21T11:04:14;7.20;99.90
13336;DHT22;6737;51.480;11.962;2023-11-21T11:06:55;7.30;99.90
13336;DHT22;6737;51.480;11.962;2023-11-21T11:09:22;7.30;99.90
13336;DHT22;6737;51.480;11.962;2023-11-21T11:11:48;7.30;99.90
13336;DHT22;6737;51.480;11.962;2023-11-21T11:14:14;7.20;99.90
13336;DHT22;6737;51.480;11.962;2023-11-21T11:16:42;7.20;99.90
13336;DHT22;6737;51.480;11.962;2023-11-21T11:19:11;7.20;99.90
13336;DHT22;6737;51.480;11.962;2023-11-21T11:22:19;7.20;99.90
13336;DHT22;6737;51.480;11.962;2023-11-21T11:36:10;7.20;99.90
13336;DHT22;6737;51.480;11.962;2023-11-21T11:38:39;7.20;99.90
13336;DHT22;6737;51.480;11.962;2023-11-21T11:41:10;7.10;99.90
13336;DHT22;6737;51.480;11.962;2023-11-21T11:43:36;7.10;99.90
13336;DHT22;6737;51.480;11.962;2023-11-21T11:46:10;7.10;99.90
13336;DHT22;6737;51.480;11.962;2023-11-21T11:48:41;7.00;99.90
13336;DHT22;6737;51.480;11.962;2023-11-21T11:51:11;6.90;99.90
13336;DHT22;6737;51.480;11.962;2023-11-21T11:53:43;7.00;99.90
13336;DHT22;6737;51.480;11.962;2023-11-21T11:58:56;6.90;99.90
13336;DHT22;6737;51.480;11.962;2023-11-21T12:01:24;6.70;99.90
13336;DHT22;6737;51.480;11.962;2023-11-21T12:06:46;6.70;99.90
13336;DHT22;6737;51.480;11.962;2023-11-21T12:09:21;6.50;99.90
13336;DHT22;6737;51.480;11.962;2023-11-21T12:11:49;6.40;99.90
13336;DHT22;6737;51.480;11.962;2023-11-21T12:14:16;6.40;99.90
13336;DHT22;6737;51.480;11.962;2023-11-21T12:16:42;6.30;99.90
13336;DHT22;6737;51.480;11.962;2023-11-21T12:19:09;6.30;99.90
13336;DHT22;6737;51.480;11.962;2023-11-21T12:21:36;6.30;99.90
13336;DHT22;6737;51.480;11.962;2023-11-21T12:24:02;6.40;99.90
13336;DHT22;6737;51.480;11.962;2023-11-21T12:26:28;6.40;99.90
13336;DHT22;6737;51.480;11.962;2023-11-21T12:28:54;6.40;99.90
13336;DHT22;6737;51.480;11.962;2023-11-21T12:31:22;6.50;99.90
13336;DHT22;6737;51.480;11.962;2023-11-21T12:33:47;6.50;99.90
13336;DHT22;6737;51.480;11.962;2023-11-21T12:36:13;6.50;99.90
13336;DHT22;6737;51.480;11.962;2023-11-21T12:38:40;6.40;99.90
13336;DHT22;6737;51.480;11.962;2023-11-21T12:41:08;6.50;99.90
13336;DHT22;6737;51.480;11.962;2023-11-21T12:43:35;6.30;99.90
13336;DHT22;6737;51.480;11.962;2023-11-21T12:46:09;6.40;99.90
13336;DHT22;6737;51.480;11.962;2023-11-21T12:48:39;6.40;99.90
13336;DHT22;6737;51.480;11.962;2023-11-21T12:51:08;6.30;99.90
13336;DHT22;6737;51.480;11.962;2023-11-21T12:53:39;6.30;99.90
13336;DHT22;6737;51.480;11.962;2023-11-21T12:56:10;6.40;99.90
13336;DHT22;6737;51.480;11.962;2023-11-21T12:58:40;6.40;99.90
13336;DHT22;6737;51.480;11.962;2023-11-21T13:01:13;6.40;99.90
13336;DHT22;6737;51.480;11.962;2023-11-21T13:03:47;6.50;99.90
13336;DHT22;6737;51.480;11.962;2023-11-21T13:06:15;6.40;99.90
13336;DHT22;6737;51.480;11.962;2023-11-21T13:08:44;6.40;99.90
13336;DHT22;6737;51.480;11.962;2023-11-21T13:11:11;6.50;99.90
13336;DHT22;6737;51.480;11.962;2023-11-21T13:13:41;6.40;99.90
13336;DHT22;6737;51.480;11.962;2023-11-21T13:16:08;6.40;99.90
13336;DHT22;6737;51.480;11.962;2023-11-21T13:18:36;6.30;99.90
13336;DHT22;6737;51.480;11.962;2023-11-21T13:21:04;6.20;99.90
13336;DHT22;6737;51.480;11.962;2023-11-21T13:23:40;6.20;99.90
13336;DHT22;6737;51.480;11.962;2023-11-21T13:26:07;6.10;99.90
13336;DHT22;6737;51.480;11.962;2023-11-21T13:28:35;6.10;99.90
13336;DHT22;6737;51.480;11.962;2023-11-21T13:31:04;6.10;99.90
13336;DHT22;6737;51.480;11.962;2023-11-21T13:33:50;6.10;99.90
13336;DHT22;6737;51.480;11.962;2023-11-21T13:36:25;6.00;99.90
13336;DHT22;6737;51.480;11.962;2023-11-21T13:38:51;6.00;99.90
13336;DHT22;6737;51.480;11.962;2023-11-21T13:41:20;6.00;99.90
13336;DHT22;6737;51.480;11.962;2023-11-21T13:43:53;6.00;99.90
13336;DHT22;6737;51.480;11.962;2023-11-21T13:46:29;6.10;99.90
13336;DHT22;6737;51.480;11.962;2023-11-21T13:49:00;6.00;99.90
13336;DHT22;6737;51.480;11.962;2023-11-21T13:51:26;6.00;99.90
13336;DHT22;6737;51.480;11.962;2023-11-21T13:54:03;6.00;99.90
13336;DHT22;6737;51.480;11.962;2023-11-21T13:56:35;6.10;99.90
13336;DHT22;6737;51.480;11.962;2023-11-21T13:59:01;6.10;99.90
13336;DHT22;6737;51.480;11.962;2023-11-21T14:01:35;6.00;99.90
13336;DHT22;6737;51.480;11.962;2023-11-21T14:04:20;6.00;99.90
13336;DHT22;6737;51.480;11.962;2023-11-21T14:07:00;6.10;99.90
13336;DHT22;6737;51.480;11.962;2023-11-21T14:09:40;6.10;99.90
13336;DHT22;6737;51.480;11.962;2023-11-21T14:12:09;6.10;99.90
13336;DHT22;6737;51.480;11.962;2023-11-21T14:14:38;6.00;99.90
13336;DHT22;6737;51.480;11.962;2023-11-21T14:17:05;6.00;99.90
13336;DHT22;6737;51.480;11.962;2023-11-21T14:19:32;6.00;99.90
13336;DHT22;6737;51.480;11.962;2023-11-21T14:22:00;6.00;99.90
13336;DHT22;6737;51.480;11.962;2023-11-21T14:24:28;6.10;99.90
13336;DHT22;6737;51.480;11.962;2023-11-21T14:26:54;5.90;99.90
13336;DHT22;6737;51.480;11.962;2023-11-21T14:29:20;5.90;99.90
13336;DHT22;6737;51.480;11.962;2023-11-21T14:31:47;5.80;99.90
13336;DHT22;6737;51.480;11.962;2023-11-21T14:34:14;5.90;99.90
13336;DHT22;6737;51.480;11.962;2023-11-21T14:36:41;5.80;99.90
13336;DHT22;6737;51.480;11.962;2023-11-21T14:39:08;5.90;99.90
13336;DHT22;6737;51.480;11.962;2023-11-21T14:41:49;5.90;99.90
13336;DHT22;6737;51.480;11.962;2023-11-21T14:44:15;5.90;99.90
13336;DHT22;6737;51.480;11.962;2023-11-21T14:46:41;5.80;99.90
13336;DHT22;6737;51.480;11.962;2023-11-21T14:49:12;5.70;99.90
13336;DHT22;6737;51.480;11.962;2023-11-21T14:51:47;5.70;99.90
13336;DHT22;6737;51.480;11.962;2023-11-21T14:54:36;5.70;99.90
13336;DHT22;6737;51.480;11.962;2023-11-21T14:57:13;5.70;99.90
13336;DHT22;6737;51.480;11.962;2023-11-21T14:59:47;5.70;99.90
13336;DHT22;6737;51.480;11.962;2023-11-21T15:02:18;5.70;99.90
13336;DHT22;6737;51.480;11.962;2023-11-21T15:04:49;5.80;99.90
13336;DHT22;6737;51.480;11.962;2023-11-21T15:07:18;5.80;99.90
13336;DHT22;6737;51.480;11.962;2023-11-21T15:09:44;5.70;99.90
13336;DHT22;6737;51.480;11.962;2023-11-21T15:12:11;5.70;99.90
13336;DHT22;6737;51.480;11.962;2023-11-21T15:14:47;5.70;99.90
13336;DHT22;6737;51.480;11.962;2023-11-21T15:17:16;5.80;99.90
13336;DHT22;6737;51.480;11.962;2023-11-21T15:19:56;5.80;99.90
13336;DHT22;6737;51.480;11.962;2023-11-21T15:22:22;5.80;99.90
13336;DHT22;6737;51.480;11.962;2023-11-21T15:24:48;5.80;99.90
13336;DHT22;6737;51.480;11.962;2023-11-21T15:27:16;5.70;99.90
13336;DHT22;6737;51.480;11.962;2023-11-21T15:29:43;5.70;99.90
13336;DHT22;6737;51.480;11.962;2023-11-21T15:32:09;5.70;99.90
13336;DHT22;6737;51.480;11.962;2023-11-21T15:34:36;5.70;99.90
13336;DHT22;6737;51.480;11.962;2023-11-21T15:37:03;5.70;99.90
13336;DHT22;6737;51.480;11.962;2023-11-21T15:39:29;5.70;99.90
13336;DHT22;6737;51.480;11.962;2023-11-21T15:41:57;5.80;99.90
13336;DHT22;6737;51.480;11.962;2023-11-21T15:44:24;5.80;99.90
13336;DHT22;6737;51.480;11.962;2023-11-21T15:46:52;5.70;99.90
13336;DHT22;6737;51.480;11.962;2023-11-21T15:49:18;5.70;99.90
13336;DHT22;6737;51.480;11.962;2023-11-21T15:51:50;5.80;99.90
13336;DHT22;6737;51.480;11.962;2023-11-21T15:54:22;5.60;99.90
13336;DHT22;6737;51.480;11.962;2023-11-21T15:56:56;5.60;99.90
13336;DHT22;6737;51.480;11.962;2023-11-21T15:59:23;5.70;99.90
13336;DHT22;6737;51.480;11.962;2023-11-21T16:01:53;5.60;99.90
13336;DHT22;6737;51.480;11.962;2023-11-21T16:04:19;5.60;99.90
13336;DHT22;6737;51.480;11.962;2023-11-21T16:06:47;5.50;99.90
13336;DHT22;6737;51.480;11.962;2023-11-21T16:09:16;5.50;99.90